createdAt,value
2017-03-24T00:03:01.932Z,7.98
2017-03-24T00:07:58.284Z,8.03
2017-03-24T00:12:55.548Z,8.06
2017-03-24T00:17:51.915Z,8.01
2017-03-24T00:22:49.810Z,8.13
2017-03-24T00:27:46.059Z,8.15
2017-03-24T00:32:47.490Z,8.08
2017-03-24T00:37:42.811Z,8.12
2017-03-24T00:42:39.301Z,8.15
2017-03-24T00:47:35.797Z,8.15
2017-03-24T00:52:32.425Z,8.15
2017-03-24T00:57:28.766Z,8.03
2017-03-24T01:02:25.272Z,8.09
2017-03-24T01:07:21.791Z,8.13
2017-03-24T01:12:18.051Z,8.01
2017-03-24T01:17:14.422Z,7.97
2017-03-24T01:22:10.735Z,7.97
2017-03-24T01:27:07.220Z,7.90
2017-03-24T01:32:04.073Z,7.90
2017-03-24T01:37:00.527Z,7.90
2017-03-24T01:41:57.257Z,8.01
2017-03-24T01:46:53.722Z,7.98
2017-03-24T01:51:50.060Z,7.97
2017-03-24T01:56:46.845Z,7.85
2017-03-24T02:01:43.214Z,7.88
2017-03-24T02:06:40.297Z,7.88
2017-03-24T02:11:36.914Z,7.87
2017-03-24T02:16:33.381Z,7.91
2017-03-24T02:21:29.735Z,7.95
2017-03-24T02:26:26.196Z,7.88
2017-03-24T02:31:22.636Z,7.91
2017-03-24T02:36:19.221Z,7.91
2017-03-24T02:41:15.482Z,7.91
2017-03-24T02:46:12.185Z,7.93
2017-03-24T02:51:08.157Z,7.93
2017-03-24T02:56:04.576Z,7.95
2017-03-24T03:01:01.357Z,7.85
2017-03-24T03:05:57.812Z,7.82
2017-03-24T03:10:54.204Z,7.85
2017-03-24T03:15:51.480Z,7.95
2017-03-24T03:20:47.665Z,7.87
2017-03-24T03:25:44.085Z,7.80
2017-03-24T03:30:41.434Z,7.69
2017-03-24T03:35:39.295Z,7.79
2017-03-24T03:40:35.412Z,7.73
2017-03-24T03:45:31.924Z,7.70
2017-03-24T03:50:28.315Z,7.75
2017-03-24T03:55:24.779Z,7.69
2017-03-24T04:00:21.920Z,7.75
2017-03-24T04:05:18.255Z,7.69
2017-03-24T04:10:14.679Z,7.66
2017-03-24T04:15:11.039Z,7.57
2017-03-24T04:20:07.490Z,7.61
2017-03-24T04:25:04.640Z,7.54
2017-03-24T04:30:01.001Z,7.43
2017-03-24T04:34:57.669Z,7.17
2017-03-24T04:39:53.781Z,7.07
2017-03-24T04:44:50.128Z,6.95
2017-03-24T04:49:46.308Z,6.93
2017-03-24T04:54:43.320Z,6.79
2017-03-24T04:59:39.780Z,6.92
2017-03-24T05:04:36.225Z,6.93
2017-03-24T05:09:32.700Z,6.96
2017-03-24T05:14:29.101Z,6.77
2017-03-24T05:19:25.585Z,6.82
2017-03-24T05:29:23.447Z,6.88
2017-03-24T05:34:19.633Z,6.87
2017-03-24T05:39:16.910Z,6.74
2017-03-24T05:44:13.382Z,6.74
2017-03-24T05:49:10.543Z,6.74
2017-03-24T05:54:07.157Z,6.67
2017-03-24T05:59:03.541Z,6.62
2017-03-24T06:03:59.951Z,6.72
2017-03-24T06:08:58.357Z,6.67
2017-03-24T06:13:54.585Z,6.63
2017-03-24T06:18:51.284Z,7.40
2017-03-24T06:23:48.678Z,7.28
2017-03-24T06:28:45.113Z,7.06
2017-03-24T06:33:41.734Z,7.06
2017-03-24T06:38:40.246Z,7.21
2017-03-24T06:43:36.606Z,8.44
2017-03-24T06:48:33.162Z,8.34
2017-03-24T06:53:29.960Z,8.15
2017-03-24T06:58:26.803Z,8.81
2017-03-24T07:03:23.388Z,8.53
2017-03-24T07:08:19.910Z,8.36
2017-03-24T07:13:16.795Z,8.67
2017-03-24T07:18:14.257Z,8.16
2017-03-24T07:23:10.377Z,7.61
2017-03-24T07:28:06.809Z,7.56
2017-03-24T07:33:03.070Z,8.10
2017-03-24T07:37:59.731Z,8.31
2017-03-24T07:42:56.503Z,8.33
2017-03-24T07:47:52.951Z,9.51
2017-03-24T07:52:50.116Z,10.02
2017-03-24T07:57:47.183Z,10.54
2017-03-24T08:02:43.982Z,9.82
2017-03-24T08:07:41.199Z,10.38
2017-03-24T08:12:38.308Z,10.49
2017-03-24T08:17:34.466Z,11.15
2017-03-24T08:22:31.269Z,11.55
2017-03-24T08:27:29.592Z,11.59
2017-03-24T08:32:26.551Z,11.00
2017-03-24T08:37:23.872Z,11.11
2017-03-24T08:42:20.069Z,10.54
2017-03-24T08:47:16.486Z,10.38
2017-03-24T08:52:13.425Z,9.95
2017-03-24T08:57:10.085Z,9.69
2017-03-24T09:02:06.411Z,9.44
2017-03-24T09:07:03.714Z,9.56
2017-03-24T09:11:59.861Z,9.77
2017-03-24T09:16:56.359Z,9.91
2017-03-24T09:21:53.710Z,9.94
2017-03-24T09:26:50.900Z,9.95
2017-03-24T09:31:47.389Z,10.46
2017-03-24T09:36:43.895Z,10.71
2017-03-24T09:41:41.587Z,10.87
2017-03-24T09:46:37.722Z,10.96
2017-03-24T09:51:34.573Z,10.86
2017-03-24T09:56:31.353Z,10.61
2017-03-24T10:01:28.516Z,11.83
2017-03-24T10:06:25.424Z,11.86
2017-03-24T10:11:22.088Z,12.43
2017-03-24T10:16:19.210Z,12.47
2017-03-24T10:21:15.788Z,12.17
2017-03-24T10:26:12.537Z,12.43
2017-03-24T10:31:09.489Z,13.00
2017-03-24T10:36:06.225Z,13.72
2017-03-24T10:41:03.661Z,12.79
2017-03-24T10:45:59.764Z,12.70
2017-03-24T10:50:57.952Z,13.67
2017-03-24T10:55:55.565Z,14.10
2017-03-24T11:00:53.543Z,14.30
2017-03-24T11:05:51.422Z,15.28
2017-03-24T11:10:49.399Z,16.13
2017-03-24T11:15:46.698Z,14.99
2017-03-24T11:20:43.501Z,15.76
2017-03-24T11:25:39.844Z,14.30
2017-03-24T11:30:36.420Z,15.76
2017-03-24T11:35:33.731Z,17.89
2017-03-24T11:40:31.172Z,16.68
2017-03-24T11:45:27.516Z,16.24
2017-03-24T11:50:24.554Z,17.42
2017-03-24T11:55:22.293Z,18.08
2017-03-24T12:00:19.299Z,14.45
2017-03-24T12:05:14.528Z,15.90
2017-03-24T12:10:11.463Z,16.81
2017-03-24T12:15:08.518Z,16.23
2017-03-24T12:20:06.324Z,14.99
2017-03-24T12:25:02.872Z,16.61
2017-03-24T12:29:59.979Z,17.71
2017-03-24T12:34:56.314Z,16.32
2017-03-24T12:39:52.324Z,15.86
2017-03-24T12:44:48.937Z,15.75
2017-03-24T12:49:45.405Z,15.22
2017-03-24T12:54:40.409Z,14.82
2017-03-24T12:59:35.689Z,14.47
2017-03-24T13:04:31.541Z,14.45
2017-03-24T13:09:27.376Z,14.92
2017-03-24T13:14:23.383Z,14.32
2017-03-24T13:19:20.631Z,14.97
2017-03-24T13:24:17.818Z,14.81
2017-03-24T13:29:16.467Z,15.19
2017-03-24T13:34:13.154Z,15.15
2017-03-24T13:39:10.030Z,15.18
2017-03-24T13:44:08.379Z,14.36
2017-03-24T13:49:03.571Z,14.33
2017-03-24T13:53:59.771Z,15.17
2017-03-24T13:58:57.037Z,15.39
2017-03-24T14:03:54.306Z,15.17
2017-03-24T14:08:51.191Z,15.10
2017-03-24T14:13:47.767Z,15.07
2017-03-24T14:18:43.910Z,15.04
2017-03-24T14:23:40.640Z,14.81
2017-03-24T14:28:36.558Z,14.62
2017-03-24T14:33:33.019Z,14.96
2017-03-24T14:38:30.243Z,15.80
2017-03-24T14:43:27.603Z,14.99
2017-03-24T14:48:24.223Z,14.33
2017-03-24T14:53:19.747Z,14.63
2017-03-24T14:58:17.141Z,14.77
2017-03-24T15:03:12.963Z,14.45
2017-03-24T15:08:08.482Z,14.05
2017-03-24T15:13:05.025Z,14.10
2017-03-24T15:18:01.201Z,13.56
2017-03-24T15:22:57.402Z,13.47
2017-03-24T15:27:53.345Z,13.25
2017-03-24T15:32:49.966Z,13.35
2017-03-24T15:37:46.219Z,13.25
2017-03-24T15:42:42.886Z,13.28
2017-03-24T15:47:40.147Z,13.19
2017-03-24T15:52:36.509Z,13.33
2017-03-24T15:57:33.034Z,13.16
2017-03-24T16:02:29.635Z,13.27
2017-03-24T16:07:26.422Z,13.05
2017-03-24T16:12:22.769Z,13.04
2017-03-24T16:17:19.146Z,12.93
2017-03-24T16:22:15.619Z,12.83
2017-03-24T16:27:12.041Z,12.75
2017-03-24T16:32:08.507Z,12.72
2017-03-24T16:37:04.554Z,12.55
2017-03-24T16:42:01.080Z,12.50
2017-03-24T16:46:57.619Z,12.54
2017-03-24T16:51:54.116Z,12.35
2017-03-24T16:56:50.523Z,12.21
2017-03-24T17:01:47.938Z,12.20
2017-03-24T17:06:44.084Z,12.10
2017-03-24T17:11:41.315Z,11.84
2017-03-24T17:16:37.545Z,11.94
2017-03-24T17:21:34.588Z,11.73
2017-03-24T17:26:31.003Z,11.68
2017-03-24T17:31:28.288Z,11.59
2017-03-24T17:36:24.624Z,11.47
2017-03-24T17:41:21.259Z,11.44
2017-03-24T17:46:17.674Z,11.30
2017-03-24T17:51:14.287Z,11.23
2017-03-24T17:56:10.981Z,11.19
2017-03-24T18:01:07.329Z,10.90
2017-03-24T18:06:04.042Z,11.02
2017-03-24T18:11:00.455Z,10.76
2017-03-24T18:15:56.662Z,10.75
2017-03-24T18:20:53.202Z,10.54
2017-03-24T18:25:50.311Z,10.35
2017-03-24T18:30:46.663Z,10.49
2017-03-24T18:35:43.883Z,10.46
2017-03-24T18:40:40.330Z,10.34
2017-03-24T18:45:38.043Z,10.26
2017-03-24T18:50:33.953Z,10.16
2017-03-24T18:55:30.149Z,10.10
2017-03-24T19:00:26.741Z,10.05
2017-03-24T19:05:22.952Z,9.97
2017-03-24T19:10:19.276Z,9.98
2017-03-24T19:15:15.726Z,9.79
2017-03-24T19:20:12.228Z,9.79
2017-03-24T19:25:08.994Z,9.65
2017-03-24T19:30:05.516Z,9.58
2017-03-24T19:35:01.865Z,9.34
2017-03-24T19:39:58.189Z,9.26
2017-03-24T19:44:54.748Z,9.19
2017-03-24T19:49:51.025Z,9.25
2017-03-24T19:54:47.398Z,9.16
2017-03-24T19:59:44.522Z,9.08
2017-03-24T20:04:41.051Z,9.08
2017-03-24T20:09:37.461Z,9.03
2017-03-24T20:14:33.860Z,8.99
2017-03-24T20:19:30.172Z,8.95
2017-03-24T20:24:27.219Z,8.91
2017-03-24T20:29:23.672Z,8.91
2017-03-24T20:34:20.103Z,8.81
2017-03-24T20:39:16.399Z,8.63
2017-03-24T20:44:12.809Z,8.67
2017-03-24T20:49:09.085Z,8.73
2017-03-24T20:54:05.481Z,8.61
2017-03-24T20:59:02.293Z,8.58
2017-03-24T21:03:59.604Z,8.60
2017-03-24T21:08:56.139Z,8.33
2017-03-24T21:13:52.886Z,8.20
2017-03-24T21:18:49.360Z,8.03
2017-03-24T21:23:45.689Z,8.10
2017-03-24T21:28:42.026Z,8.15
2017-03-24T21:33:39.105Z,8.12
2017-03-24T21:38:35.895Z,8.09
2017-03-24T21:43:32.365Z,8.06
2017-03-24T21:48:29.965Z,7.82
2017-03-24T21:53:26.527Z,7.77
2017-03-24T21:58:22.963Z,7.69
2017-03-24T22:03:19.353Z,7.79
2017-03-24T22:08:15.787Z,7.70
2017-03-24T22:13:12.226Z,7.69
2017-03-24T22:18:08.441Z,7.57
2017-03-24T22:23:04.775Z,7.58
2017-03-24T22:28:01.122Z,7.51
2017-03-24T22:32:57.432Z,7.39
2017-03-24T22:37:54.174Z,7.29
2017-03-24T22:42:50.854Z,7.21
2017-03-24T22:47:47.896Z,7.25
2017-03-24T22:52:44.218Z,7.25
2017-03-24T22:57:40.565Z,7.38
2017-03-24T23:02:36.953Z,7.29
2017-03-24T23:07:33.328Z,7.38
2017-03-24T23:12:30.173Z,7.29
2017-03-24T23:17:27.532Z,7.20
2017-03-24T23:22:23.537Z,7.10
2017-03-24T23:27:19.931Z,6.96
2017-03-24T23:32:16.471Z,6.95
2017-03-24T23:37:13.100Z,6.85
2017-03-24T23:42:09.288Z,6.72
2017-03-24T23:47:05.624Z,6.66
2017-03-24T23:52:02.065Z,6.66
2017-03-24T23:56:58.576Z,6.62
